createdAt,value
2023-07-25T00:02:02.921Z,1.13
2023-07-25T00:04:29.543Z,0.73
2023-07-25T00:06:56.052Z,0.80
2023-07-25T00:09:22.755Z,0.47
2023-07-25T00:11:49.553Z,0.83
2023-07-25T00:14:16.888Z,0.53
2023-07-25T00:16:43.580Z,0.60
2023-07-25T00:19:10.284Z,0.70
2023-07-25T00:21:36.858Z,0.60
2023-07-25T00:24:03.627Z,0.83
2023-07-25T00:26:30.589Z,0.60
2023-07-25T00:28:59.674Z,0.60
2023-07-25T00:31:26.410Z,0.43
2023-07-25T00:33:53.098Z,0.60
2023-07-25T00:36:19.545Z,0.60
2023-07-25T00:38:46.011Z,1.00
2023-07-25T00:41:12.445Z,0.50
2023-07-25T00:43:38.913Z,0.77
2023-07-25T00:46:06.606Z,0.60
2023-07-25T00:48:36.833Z,0.60
2023-07-25T00:51:04.665Z,0.50
2023-07-25T00:53:31.509Z,0.60
2023-07-25T00:55:58.493Z,0.57
2023-07-25T00:58:24.998Z,0.70
2023-07-25T01:00:51.446Z,0.87
2023-07-25T01:03:20.737Z,0.70
2023-07-25T01:05:50.193Z,1.10
2023-07-25T01:08:16.775Z,0.80
2023-07-25T01:10:43.519Z,0.70
2023-07-25T01:13:10.219Z,0.70
2023-07-25T01:15:37.440Z,0.60
2023-07-25T01:18:05.133Z,0.90
2023-07-25T01:20:34.961Z,0.77
2023-07-25T01:23:03.669Z,1.23
2023-07-25T01:25:30.409Z,0.70
2023-07-25T01:27:57.201Z,1.10
2023-07-25T01:30:23.701Z,0.67
2023-07-25T01:32:52.488Z,0.70
2023-07-25T01:35:21.121Z,0.83
2023-07-25T01:37:48.268Z,0.57
2023-07-25T01:40:16.685Z,0.60
2023-07-25T01:42:43.182Z,0.50
2023-07-25T01:45:11.423Z,0.50
2023-07-25T01:47:38.064Z,0.70
2023-07-25T01:50:05.042Z,0.90
2023-07-25T01:52:33.374Z,0.60
2023-07-25T01:54:59.892Z,0.60
2023-07-25T01:57:26.335Z,0.90
2023-07-25T01:59:53.465Z,0.70
2023-07-25T02:02:20.015Z,0.90
2023-07-25T02:04:47.686Z,0.70
2023-07-25T02:07:14.926Z,0.73
2023-07-25T02:09:41.593Z,0.87
2023-07-25T02:12:10.280Z,0.90
2023-07-25T02:14:37.034Z,0.93
2023-07-25T02:17:03.956Z,0.67
2023-07-25T02:19:30.432Z,1.00
2023-07-25T02:21:58.154Z,0.73
2023-07-25T02:24:24.937Z,1.03
2023-07-25T02:26:51.466Z,0.70
2023-07-25T02:29:18.096Z,1.20
2023-07-25T02:31:46.612Z,1.00
2023-07-25T02:34:13.173Z,0.97
2023-07-25T02:36:39.994Z,0.90
2023-07-25T02:39:06.574Z,0.90
2023-07-25T02:41:34.488Z,0.80
2023-07-25T02:44:01.132Z,0.87
2023-07-25T02:46:27.694Z,0.87
2023-07-25T02:48:55.452Z,1.20
2023-07-25T02:51:24.888Z,0.93
2023-07-25T02:53:51.694Z,1.23
2023-07-25T02:56:18.161Z,1.60
2023-07-25T02:58:45.697Z,0.90
2023-07-25T03:01:12.557Z,0.90
2023-07-25T03:03:40.260Z,0.90
2023-07-25T03:06:06.768Z,1.00
2023-07-25T03:08:33.595Z,0.97
2023-07-25T03:11:02.435Z,1.07
2023-07-25T03:13:29.063Z,1.40
2023-07-25T03:15:55.628Z,1.07
2023-07-25T03:18:22.038Z,1.10
2023-07-25T03:20:49.989Z,0.70
2023-07-25T03:23:16.581Z,0.70
2023-07-25T03:25:45.471Z,0.60
2023-07-25T03:28:14.839Z,1.17
2023-07-25T03:30:42.545Z,0.73
2023-07-25T03:33:16.485Z,0.70
2023-07-25T03:35:43.116Z,0.67
2023-07-25T03:38:10.367Z,0.70
2023-07-25T03:40:38.292Z,0.73
2023-07-25T03:43:04.740Z,0.80
2023-07-25T03:45:33.853Z,0.90
2023-07-25T03:48:00.420Z,0.93
2023-07-25T03:50:27.262Z,1.03
2023-07-25T03:52:54.330Z,0.67
2023-07-25T03:55:20.789Z,1.03
2023-07-25T03:57:50.564Z,0.67
2023-07-25T04:00:20.075Z,0.60
2023-07-25T04:02:48.283Z,0.70
2023-07-25T04:05:21.048Z,0.60
2023-07-25T04:07:49.795Z,0.53
2023-07-25T04:10:16.923Z,0.70
2023-07-25T04:12:43.616Z,1.30
2023-07-25T04:15:10.396Z,0.60
2023-07-25T04:17:36.879Z,0.60
2023-07-25T04:20:04.183Z,0.60
2023-07-25T04:22:30.678Z,0.60
2023-07-25T04:24:58.933Z,0.70
2023-07-25T04:27:25.709Z,0.90
2023-07-25T04:29:52.430Z,0.80
2023-07-25T04:32:21.148Z,0.50
2023-07-25T04:34:47.733Z,0.50
2023-07-25T04:37:14.202Z,0.57
2023-07-25T04:39:40.684Z,0.50
2023-07-25T04:42:07.535Z,0.83
2023-07-25T04:44:34.730Z,0.50
2023-07-25T04:47:01.216Z,0.30
2023-07-25T04:49:28.783Z,0.60
2023-07-25T04:51:55.229Z,0.50
2023-07-25T04:54:21.855Z,0.60
2023-07-25T04:56:48.390Z,0.50
2023-07-25T04:59:16.654Z,0.30
2023-07-25T05:01:43.311Z,0.67
2023-07-25T05:04:10.176Z,0.70
2023-07-25T05:06:36.929Z,0.47
2023-07-25T05:09:04.967Z,0.63
2023-07-25T05:11:31.797Z,0.60
2023-07-25T05:13:58.456Z,0.87
2023-07-25T05:16:24.996Z,0.70
2023-07-25T05:18:51.655Z,0.50
2023-07-25T05:21:18.091Z,0.60
2023-07-25T05:23:45.746Z,0.40
2023-07-25T05:26:12.296Z,0.70
2023-07-25T05:28:38.902Z,0.70
2023-07-25T05:31:05.486Z,0.87
2023-07-25T05:33:33.567Z,0.60
2023-07-25T05:36:04.123Z,0.50
2023-07-25T05:38:31.792Z,0.77
2023-07-25T05:40:58.221Z,0.77
2023-07-25T05:43:25.849Z,1.07
2023-07-25T05:45:52.426Z,0.50
2023-07-25T05:48:19.092Z,0.40
2023-07-25T05:50:55.773Z,0.90
2023-07-25T05:53:23.989Z,0.60
2023-07-25T05:55:52.099Z,0.53
2023-07-25T05:58:19.275Z,0.60
2023-07-25T06:00:48.120Z,0.50
2023-07-25T06:03:15.969Z,0.53
2023-07-25T06:05:42.835Z,0.60
2023-07-25T06:08:10.711Z,0.60
2023-07-25T06:10:40.514Z,0.60
2023-07-25T06:13:07.831Z,0.50
2023-07-25T06:15:38.591Z,0.60
2023-07-25T06:18:06.362Z,0.53
2023-07-25T06:20:33.574Z,0.47
2023-07-25T06:23:03.740Z,0.67
2023-07-25T06:25:32.504Z,0.60
2023-07-25T06:27:59.153Z,0.40
2023-07-25T06:30:26.730Z,0.30
2023-07-25T06:32:55.537Z,0.50
2023-07-25T06:35:23.434Z,0.50
2023-07-25T06:37:51.870Z,0.50
2023-07-25T06:40:18.351Z,0.60
2023-07-25T06:42:44.897Z,0.50
2023-07-25T06:45:11.617Z,0.47
2023-07-25T06:47:38.169Z,0.60
2023-07-25T06:50:05.467Z,0.37
2023-07-25T06:52:32.476Z,0.70
2023-07-25T06:55:01.748Z,0.50
2023-07-25T06:57:30.054Z,0.40
2023-07-25T06:59:56.976Z,0.57
2023-07-25T07:02:27.469Z,0.30
2023-07-25T07:04:54.161Z,0.30
2023-07-25T07:07:20.770Z,0.50
2023-07-25T07:09:47.284Z,0.40
2023-07-25T07:12:13.865Z,0.40
2023-07-25T07:14:41.587Z,0.20
2023-07-25T07:17:09.262Z,0.30
2023-07-25T07:19:36.364Z,0.30
2023-07-25T07:22:03.584Z,0.40
2023-07-25T07:24:30.228Z,0.43
2023-07-25T07:26:56.775Z,0.47
2023-07-25T07:29:23.745Z,0.40
2023-07-25T07:31:50.505Z,0.47
2023-07-25T07:34:19.133Z,0.30
2023-07-25T07:36:46.660Z,0.67
2023-07-25T07:39:13.388Z,0.33
2023-07-25T07:41:39.913Z,0.33
2023-07-25T07:44:06.948Z,0.40
2023-07-25T07:46:35.610Z,0.30
2023-07-25T07:49:02.455Z,0.33
2023-07-25T07:51:29.382Z,0.30
2023-07-25T07:53:57.318Z,0.40
2023-07-25T07:56:27.249Z,0.17
2023-07-25T07:58:54.823Z,0.60
2023-07-25T08:01:26.282Z,0.37
2023-07-25T08:03:58.484Z,0.37
2023-07-25T08:06:24.987Z,0.37
2023-07-25T08:08:52.112Z,0.33
2023-07-25T08:11:18.545Z,0.33
2023-07-25T08:13:45.322Z,0.20
2023-07-25T08:16:11.932Z,0.57
2023-07-25T08:18:38.453Z,0.30
2023-07-25T08:21:06.761Z,0.30
2023-07-25T08:23:33.498Z,0.13
2023-07-25T08:26:02.358Z,0.30
2023-07-25T08:28:29.009Z,0.40
2023-07-25T08:31:04.355Z,0.40
2023-07-25T08:33:35.811Z,0.33
2023-07-25T08:36:02.689Z,0.20
2023-07-25T08:38:29.390Z,0.47
2023-07-25T08:41:16.896Z,0.23
2023-07-25T08:43:44.805Z,0.20
2023-07-25T08:46:13.003Z,0.20
2023-07-25T08:48:43.040Z,0.63
2023-07-25T08:51:21.401Z,0.37
2023-07-25T08:54:13.934Z,0.20
2023-07-25T08:56:41.568Z,0.40
2023-07-25T08:59:08.453Z,0.23
2023-07-25T09:01:35.657Z,0.53
2023-07-25T09:04:04.768Z,0.30
2023-07-25T09:06:34.786Z,0.40
2023-07-25T09:09:02.949Z,0.33
2023-07-25T09:11:30.207Z,0.20
2023-07-25T09:13:59.202Z,0.20
2023-07-25T09:16:27.351Z,0.30
2023-07-25T09:18:56.572Z,0.60
2023-07-25T09:21:23.184Z,0.53
2023-07-25T09:23:54.396Z,0.20
2023-07-25T09:26:31.361Z,0.30
2023-07-25T09:29:01.289Z,0.13
2023-07-25T09:31:30.626Z,0.27
2023-07-25T09:33:58.114Z,0.30
2023-07-25T09:36:30.093Z,0.27
2023-07-25T09:38:56.876Z,0.40
2023-07-25T09:41:24.711Z,0.37
2023-07-25T09:43:54.240Z,0.30
2023-07-25T09:46:20.826Z,0.33
2023-07-25T09:48:51.614Z,0.20
2023-07-25T09:51:19.393Z,0.20
2023-07-25T09:53:52.446Z,0.30
2023-07-25T09:56:22.415Z,0.40
2023-07-25T09:59:06.438Z,0.37
2023-07-25T10:01:36.580Z,0.40
2023-07-25T10:04:04.121Z,0.50
2023-07-25T10:06:31.888Z,0.47
2023-07-25T10:08:59.111Z,0.53
2023-07-25T10:11:30.299Z,0.33
2023-07-25T10:13:57.880Z,0.47
2023-07-25T10:16:25.958Z,0.10
2023-07-25T10:19:00.317Z,0.43
2023-07-25T10:21:28.502Z,0.30
2023-07-25T10:24:01.587Z,0.20
2023-07-25T10:26:29.360Z,0.67
2023-07-25T10:28:59.139Z,0.30
2023-07-25T10:31:35.091Z,0.30
2023-07-25T10:34:03.389Z,0.43
2023-07-25T10:36:29.841Z,0.30
2023-07-25T10:39:10.097Z,0.30
2023-07-25T10:41:38.734Z,0.23
2023-07-25T10:44:06.558Z,0.40
2023-07-25T10:46:35.464Z,0.30
2023-07-25T10:49:03.861Z,0.30
2023-07-25T10:51:50.064Z,0.20
2023-07-25T10:54:20.508Z,0.20
2023-07-25T10:57:18.371Z,0.23
2023-07-25T10:59:59.741Z,0.20
2023-07-25T11:02:42.752Z,0.30
2023-07-25T11:05:15.298Z,0.10
2023-07-25T11:07:48.104Z,0.20
2023-07-25T11:10:28.898Z,0.10
2023-07-25T11:13:01.086Z,0.20
2023-07-25T11:15:45.615Z,0.30
2023-07-25T11:18:14.306Z,0.50
2023-07-25T11:20:41.872Z,0.40
2023-07-25T11:23:08.535Z,0.30
2023-07-25T11:25:35.792Z,0.30
2023-07-25T11:28:02.303Z,0.33
2023-07-25T11:30:28.988Z,0.30
2023-07-25T11:32:55.565Z,0.37
2023-07-25T11:35:23.154Z,0.23
2023-07-25T11:37:51.341Z,0.30
2023-07-25T11:40:24.323Z,0.30
2023-07-25T11:42:51.370Z,0.33
2023-07-25T11:45:18.386Z,0.30
2023-07-25T11:47:49.504Z,0.30
2023-07-25T11:50:26.890Z,0.50
2023-07-25T11:52:55.875Z,0.10
2023-07-25T11:55:23.580Z,0.23
2023-07-25T11:57:50.518Z,0.30
2023-07-25T12:00:19.720Z,0.60
2023-07-25T12:02:47.489Z,0.30
2023-07-25T12:05:31.899Z,0.27
2023-07-25T12:08:02.130Z,0.40
2023-07-25T12:10:30.251Z,0.30
2023-07-25T12:12:57.788Z,0.70
2023-07-25T12:15:25.480Z,0.40
2023-07-25T12:17:52.147Z,0.23
2023-07-25T12:20:21.229Z,0.30
2023-07-25T12:22:48.228Z,0.50
2023-07-25T12:25:19.516Z,0.37
2023-07-25T12:27:50.062Z,0.40
2023-07-25T12:30:17.102Z,0.50
2023-07-25T12:32:44.975Z,0.50
2023-07-25T12:35:12.729Z,0.50
2023-07-25T12:37:39.234Z,0.30
2023-07-25T12:40:06.691Z,0.40
2023-07-25T12:42:33.305Z,0.60
2023-07-25T12:45:08.532Z,0.50
2023-07-25T12:47:37.800Z,0.40
2023-07-25T12:50:05.985Z,0.50
2023-07-25T12:52:32.404Z,0.63
2023-07-25T12:54:58.857Z,0.50
2023-07-25T12:57:25.326Z,0.47
2023-07-25T12:59:51.947Z,0.40
2023-07-25T13:02:18.555Z,0.37
2023-07-25T13:04:46.483Z,0.53
2023-07-25T13:07:14.684Z,0.40
2023-07-25T13:09:41.162Z,0.43
2023-07-25T13:12:08.061Z,0.40
2023-07-25T13:14:35.712Z,0.37
2023-07-25T13:17:02.339Z,0.50
2023-07-25T13:19:28.825Z,0.50
2023-07-25T13:21:55.266Z,0.40
2023-07-25T13:24:21.988Z,0.40
2023-07-25T13:26:48.553Z,0.40
2023-07-25T13:29:17.508Z,0.43
2023-07-25T13:31:43.931Z,0.57
2023-07-25T13:34:10.630Z,0.50
2023-07-25T13:36:39.352Z,0.50
2023-07-25T13:39:07.436Z,0.60
2023-07-25T13:41:34.633Z,0.30
2023-07-25T13:44:01.305Z,0.40
2023-07-25T13:46:28.848Z,0.33
2023-07-25T13:48:55.344Z,0.50
2023-07-25T13:51:21.972Z,0.73
2023-07-25T13:53:52.462Z,0.30
2023-07-25T13:56:24.307Z,0.50
2023-07-25T13:58:50.696Z,0.40
2023-07-25T14:01:17.227Z,0.40
2023-07-25T14:03:43.767Z,0.30
2023-07-25T14:06:11.258Z,0.60
2023-07-25T14:08:37.754Z,0.30
2023-07-25T14:11:04.456Z,0.40
2023-07-25T14:13:31.664Z,0.60
2023-07-25T14:16:00.718Z,0.50
2023-07-25T14:18:27.290Z,0.60
2023-07-25T14:20:56.620Z,0.40
2023-07-25T14:23:23.524Z,0.77
2023-07-25T14:25:50.539Z,0.50
2023-07-25T14:28:16.991Z,0.50
2023-07-25T14:30:43.634Z,0.70
2023-07-25T14:33:10.644Z,0.40
2023-07-25T14:35:37.223Z,0.40
2023-07-25T14:38:06.378Z,0.50
2023-07-25T14:40:34.770Z,0.33
2023-07-25T14:43:01.216Z,0.50
2023-07-25T14:45:27.668Z,0.60
2023-07-25T14:47:55.635Z,0.37
2023-07-25T14:50:22.912Z,0.40
2023-07-25T14:52:51.763Z,0.50
2023-07-25T14:55:18.494Z,0.40
2023-07-25T14:57:48.115Z,0.50
2023-07-25T15:00:17.513Z,0.60
2023-07-25T15:02:45.381Z,0.50
2023-07-25T15:05:12.648Z,0.60
2023-07-25T15:07:39.161Z,0.57
2023-07-25T15:10:07.351Z,0.43
2023-07-25T15:12:33.969Z,0.40
2023-07-25T15:15:04.354Z,0.67
2023-07-25T15:17:31.177Z,0.70
2023-07-25T15:20:04.118Z,0.60
2023-07-25T15:22:31.167Z,0.40
2023-07-25T15:24:58.315Z,0.30
2023-07-25T15:27:24.894Z,0.30
2023-07-25T15:29:51.592Z,0.93
2023-07-25T15:32:18.377Z,0.40
2023-07-25T15:34:45.006Z,0.40
2023-07-25T15:37:13.083Z,0.50
2023-07-25T15:39:42.137Z,0.60
2023-07-25T15:42:08.741Z,0.50
2023-07-25T15:44:37.295Z,0.50
2023-07-25T15:47:05.493Z,0.60
2023-07-25T15:49:32.231Z,0.60
2023-07-25T15:52:02.071Z,0.70
2023-07-25T15:54:29.859Z,0.80
2023-07-25T15:56:56.383Z,0.57
2023-07-25T15:59:25.316Z,0.70
2023-07-25T16:01:53.948Z,0.70
2023-07-25T16:04:21.070Z,0.77
2023-07-25T16:06:47.987Z,0.90
2023-07-25T16:09:20.181Z,0.60
2023-07-25T16:11:46.665Z,0.60
2023-07-25T16:14:17.388Z,0.40
2023-07-25T16:16:44.386Z,0.77
2023-07-25T16:19:10.979Z,0.70
2023-07-25T16:21:37.448Z,0.70
2023-07-25T16:24:06.368Z,0.50
2023-07-25T16:26:34.393Z,0.67
2023-07-25T16:29:01.015Z,0.70
2023-07-25T16:31:33.054Z,0.67
2023-07-25T16:34:00.382Z,0.83
2023-07-25T16:36:29.714Z,0.67
2023-07-25T16:38:56.398Z,1.40
2023-07-25T16:41:25.329Z,0.87
2023-07-25T16:43:52.537Z,0.90
2023-07-25T16:46:19.321Z,0.63
2023-07-25T16:48:48.194Z,0.83
2023-07-25T16:51:15.880Z,0.70
2023-07-25T16:53:43.723Z,0.60
2023-07-25T16:56:10.810Z,0.70
2023-07-25T16:58:37.543Z,0.70
2023-07-25T17:01:04.647Z,0.90
2023-07-25T17:03:33.319Z,0.90
2023-07-25T17:06:02.669Z,0.87
2023-07-25T17:08:31.186Z,0.43
2023-07-25T17:10:57.602Z,0.50
2023-07-25T17:13:24.379Z,0.60
2023-07-25T17:15:52.043Z,0.57
2023-07-25T17:18:18.665Z,0.73
2023-07-25T17:20:47.612Z,0.60
2023-07-25T17:23:15.109Z,0.60
2023-07-25T17:25:42.103Z,0.50
2023-07-25T17:28:08.773Z,0.60
2023-07-25T17:30:35.266Z,0.60
2023-07-25T17:33:05.714Z,0.70
2023-07-25T17:35:37.981Z,0.60
2023-07-25T17:38:08.993Z,0.77
2023-07-25T17:40:35.670Z,0.50
2023-07-25T17:43:02.372Z,0.70
2023-07-25T17:45:30.268Z,0.70
2023-07-25T17:47:56.893Z,0.70
2023-07-25T17:50:23.509Z,0.70
2023-07-25T17:52:50.459Z,0.90
2023-07-25T17:55:17.057Z,0.80
2023-07-25T17:57:43.597Z,1.10
2023-07-25T18:00:11.279Z,0.80
2023-07-25T18:02:38.392Z,0.60
2023-07-25T18:05:06.941Z,0.60
2023-07-25T18:07:33.486Z,0.60
2023-07-25T18:10:01.424Z,0.73
2023-07-25T18:12:27.906Z,0.57
2023-07-25T18:14:55.620Z,0.50
2023-07-25T18:17:22.483Z,0.57
2023-07-25T18:19:49.153Z,0.60
2023-07-25T18:22:23.158Z,0.40
2023-07-25T18:24:49.694Z,0.60
2023-07-25T18:27:17.699Z,0.50
2023-07-25T18:29:44.309Z,0.40
2023-07-25T18:32:11.068Z,0.40
2023-07-25T18:34:37.538Z,1.07
2023-07-25T18:37:04.281Z,0.57
2023-07-25T18:39:32.331Z,0.60
2023-07-25T18:41:59.001Z,0.63
2023-07-25T18:44:25.704Z,0.40
2023-07-25T18:46:54.698Z,0.60
2023-07-25T18:49:22.136Z,0.70
2023-07-25T18:51:48.795Z,0.60
2023-07-25T18:54:15.598Z,0.70
2023-07-25T18:56:42.134Z,0.43
2023-07-25T18:59:11.069Z,0.80
2023-07-25T19:01:37.579Z,0.43
2023-07-25T19:04:04.220Z,0.70
2023-07-25T19:06:31.241Z,0.60
2023-07-25T19:08:58.051Z,0.50
2023-07-25T19:11:25.458Z,0.60
2023-07-25T19:13:53.144Z,0.60
2023-07-25T19:16:19.687Z,0.60
2023-07-25T19:18:46.102Z,0.70
2023-07-25T19:21:13.082Z,0.60
2023-07-25T19:23:39.638Z,0.60
2023-07-25T19:26:06.252Z,0.70
2023-07-25T19:28:32.704Z,0.60
2023-07-25T19:30:59.620Z,0.63
2023-07-25T19:33:27.088Z,0.60
2023-07-25T19:35:59.187Z,0.70
2023-07-25T19:38:28.890Z,0.50
2023-07-25T19:40:55.907Z,0.60
2023-07-25T19:43:22.787Z,0.80
2023-07-25T19:45:50.036Z,0.90
2023-07-25T19:48:17.764Z,0.63
2023-07-25T19:50:49.022Z,1.10
2023-07-25T19:53:16.767Z,0.50
2023-07-25T19:55:45.533Z,0.60
2023-07-25T19:58:12.095Z,0.70
2023-07-25T20:00:38.898Z,0.57
2023-07-25T20:03:06.647Z,0.43
2023-07-25T20:05:33.411Z,0.60
2023-07-25T20:08:00.033Z,0.60
2023-07-25T20:10:26.574Z,0.60
2023-07-25T20:12:53.108Z,0.80
2023-07-25T20:15:20.703Z,0.70
2023-07-25T20:17:48.227Z,0.80
2023-07-25T20:20:14.992Z,0.40
2023-07-25T20:22:41.677Z,0.80
2023-07-25T20:25:10.891Z,0.60
2023-07-25T20:27:37.660Z,0.63
2023-07-25T20:30:04.838Z,0.50
2023-07-25T20:32:31.601Z,0.60
2023-07-25T20:35:00.569Z,0.63
2023-07-25T20:37:28.823Z,0.80
2023-07-25T20:39:55.736Z,0.87
2023-07-25T20:42:22.626Z,0.70
2023-07-25T20:44:50.652Z,0.63
2023-07-25T20:47:17.452Z,0.60
2023-07-25T20:49:43.961Z,0.70
2023-07-25T20:52:10.440Z,0.67
2023-07-25T20:54:36.908Z,0.80
2023-07-25T20:57:05.815Z,0.73
2023-07-25T20:59:32.308Z,0.60
2023-07-25T21:01:58.866Z,0.60
2023-07-25T21:04:27.523Z,0.70
2023-07-25T21:06:57.969Z,0.70
2023-07-25T21:09:24.372Z,0.70
2023-07-25T21:11:50.954Z,0.70
2023-07-25T21:14:18.122Z,0.60
2023-07-25T21:16:45.930Z,0.97
2023-07-25T21:19:12.778Z,0.70
2023-07-25T21:21:39.407Z,0.50
2023-07-25T21:24:07.077Z,0.70
2023-07-25T21:26:34.859Z,0.87
2023-07-25T21:29:02.809Z,0.70
2023-07-25T21:31:32.815Z,0.60
2023-07-25T21:34:02.662Z,0.70
2023-07-25T21:36:30.633Z,0.70
2023-07-25T21:38:57.367Z,0.60
2023-07-25T21:41:24.391Z,0.77
2023-07-25T21:43:51.013Z,0.90
2023-07-25T21:46:18.061Z,0.60
2023-07-25T21:48:44.791Z,0.60
2023-07-25T21:51:11.479Z,0.70
2023-07-25T21:53:38.492Z,0.87
2023-07-25T21:56:05.061Z,0.60
2023-07-25T21:58:33.199Z,0.70
2023-07-25T22:01:00.232Z,0.70
2023-07-25T22:03:30.670Z,0.80
2023-07-25T22:06:00.553Z,0.70
2023-07-25T22:08:27.671Z,0.60
2023-07-25T22:10:55.316Z,0.60
2023-07-25T22:13:22.240Z,0.70
2023-07-25T22:15:49.038Z,0.57
2023-07-25T22:18:16.582Z,0.70
2023-07-25T22:20:51.715Z,0.77
2023-07-25T22:23:20.390Z,0.60
2023-07-25T22:25:46.844Z,0.63
2023-07-25T22:28:13.418Z,0.57
2023-07-25T22:30:40.216Z,0.77
2023-07-25T22:33:07.136Z,0.60
2023-07-25T22:35:34.450Z,0.70
2023-07-25T22:38:02.174Z,0.80
2023-07-25T22:40:28.984Z,0.90
2023-07-25T22:42:55.529Z,0.87
2023-07-25T22:45:22.252Z,0.80
2023-07-25T22:47:48.696Z,0.50
2023-07-25T22:50:15.307Z,0.60
2023-07-25T22:52:44.213Z,0.57
2023-07-25T22:55:15.973Z,0.80
2023-07-25T22:57:42.543Z,0.63
2023-07-25T23:00:10.896Z,0.70
2023-07-25T23:02:37.763Z,0.70
2023-07-25T23:05:04.822Z,0.70
2023-07-25T23:07:32.821Z,0.60
2023-07-25T23:10:00.824Z,0.70
2023-07-25T23:12:27.297Z,0.70
2023-07-25T23:14:53.918Z,0.60
2023-07-25T23:17:20.375Z,0.80
2023-07-25T23:19:47.057Z,0.70
2023-07-25T23:22:13.878Z,0.83
2023-07-25T23:24:40.736Z,0.60
2023-07-25T23:27:07.608Z,0.70
2023-07-25T23:29:34.429Z,0.80
2023-07-25T23:32:01.188Z,0.53
2023-07-25T23:34:29.660Z,0.73
2023-07-25T23:36:56.149Z,0.87
2023-07-25T23:39:25.790Z,0.70
2023-07-25T23:41:52.265Z,0.73
2023-07-25T23:44:21.381Z,0.70
2023-07-25T23:46:47.899Z,0.60
2023-07-25T23:49:15.582Z,0.63
2023-07-25T23:51:42.079Z,0.60
2023-07-25T23:54:08.532Z,0.83
2023-07-25T23:56:35.439Z,1.00
2023-07-25T23:59:02.127Z,0.70
